sensor_id;sensor_type;location;lat;lon;timestamp;pressure;altitude;pressure_sealevel;temperature;humidity
26823;BME280;14852;51.910;8.878;2023-05-23T00:00:25;99623.06;;;19.47;62.38
26823;BME280;14852;51.910;8.878;2023-05-23T00:02:51;99627.06;;;19.42;62.16
26823;BME280;14852;51.910;8.878;2023-05-23T00:05:17;99625.69;;;19.38;62.30
26823;BME280;14852;51.910;8.878;2023-05-23T00:07:46;99623.34;;;19.35;62.45
26823;BME280;14852;51.910;8.878;2023-05-23T00:10:13;99627.78;;;19.25;62.21
26823;BME280;14852;51.910;8.878;2023-05-23T00:12:38;99624.97;;;19.16;62.52
26823;BME280;14852;51.910;8.878;2023-05-23T00:15:07;99628.44;;;19.07;62.56
26823;BME280;14852;51.910;8.878;2023-05-23T00:17:34;99634.53;;;18.98;62.23
26823;BME280;14852;51.910;8.878;2023-05-23T00:20:05;99631.06;;;18.88;62.56
26823;BME280;14852;51.910;8.878;2023-05-23T00:22:34;99629.13;;;18.80;62.57
26823;BME280;14852;51.910;8.878;2023-05-23T00:25:01;99628.81;;;18.74;62.59
26823;BME280;14852;51.910;8.878;2023-05-23T00:27:27;99619.81;;;18.67;62.62
26823;BME280;14852;51.910;8.878;2023-05-23T00:29:53;99627.25;;;18.62;62.58
26823;BME280;14852;51.910;8.878;2023-05-23T00:32:19;99633.47;;;18.61;62.83
26823;BME280;14852;51.910;8.878;2023-05-23T00:34:45;99631.69;;;18.61;62.48
26823;BME280;14852;51.910;8.878;2023-05-23T00:37:11;99626.88;;;18.66;62.12
26823;BME280;14852;51.910;8.878;2023-05-23T00:39:37;99631.84;;;18.69;62.45
26823;BME280;14852;51.910;8.878;2023-05-23T00:42:04;99625.59;;;18.70;62.24
26823;BME280;14852;51.910;8.878;2023-05-23T00:44:31;99623.81;;;18.71;62.15
26823;BME280;14852;51.910;8.878;2023-05-23T00:46:57;99628.41;;;18.69;61.92
26823;BME280;14852;51.910;8.878;2023-05-23T00:49:23;99628.53;;;18.67;62.15
26823;BME280;14852;51.910;8.878;2023-05-23T00:51:52;99633.94;;;18.66;62.50
26823;BME280;14852;51.910;8.878;2023-05-23T00:54:28;99635.59;;;18.67;61.90
26823;BME280;14852;51.910;8.878;2023-05-23T00:56:56;99632.66;;;18.60;62.02
26823;BME280;14852;51.910;8.878;2023-05-23T00:59:26;99636.50;;;18.56;62.58
26823;BME280;14852;51.910;8.878;2023-05-23T01:01:55;99635.22;;;18.51;62.34
26823;BME280;14852;51.910;8.878;2023-05-23T01:04:21;99644.22;;;18.48;62.63
26823;BME280;14852;51.910;8.878;2023-05-23T01:06:55;99643.94;;;18.51;62.37
26823;BME280;14852;51.910;8.878;2023-05-23T01:09:22;99644.66;;;18.53;62.65
26823;BME280;14852;51.910;8.878;2023-05-23T01:12:01;99645.34;;;18.55;62.22
26823;BME280;14852;51.910;8.878;2023-05-23T01:14:53;99649.97;;;18.63;61.91
26823;BME280;14852;51.910;8.878;2023-05-23T01:17:31;99644.44;;;18.66;61.79
26823;BME280;14852;51.910;8.878;2023-05-23T01:20:10;99646.97;;;18.67;61.98
26823;BME280;14852;51.910;8.878;2023-05-23T01:28:54;99652.34;;;18.66;61.78
26823;BME280;14852;51.910;8.878;2023-05-23T01:31:23;99644.72;;;18.63;61.66
26823;BME280;14852;51.910;8.878;2023-05-23T01:33:52;99640.28;;;18.63;61.70
26823;BME280;14852;51.910;8.878;2023-05-23T01:36:18;99639.44;;;18.63;61.69
26823;BME280;14852;51.910;8.878;2023-05-23T01:38:44;99642.09;;;18.63;62.05
26823;BME280;14852;51.910;8.878;2023-05-23T01:41:10;99639.84;;;18.58;62.28
26823;BME280;14852;51.910;8.878;2023-05-23T01:43:37;99637.34;;;18.57;62.22
26823;BME280;14852;51.910;8.878;2023-05-23T01:46:03;99636.50;;;18.56;62.07
26823;BME280;14852;51.910;8.878;2023-05-23T01:48:31;99635.66;;;18.56;61.86
26823;BME280;14852;51.910;8.878;2023-05-23T01:50:57;99635.78;;;18.54;61.92
26823;BME280;14852;51.910;8.878;2023-05-23T01:53:24;99642.03;;;18.53;61.83
26823;BME280;14852;51.910;8.878;2023-05-23T01:55:51;99637.84;;;18.51;62.05
26823;BME280;14852;51.910;8.878;2023-05-23T01:58:17;99636.19;;;18.50;61.91
26823;BME280;14852;51.910;8.878;2023-05-23T02:00:43;99639.66;;;18.50;62.25
26823;BME280;14852;51.910;8.878;2023-05-23T02:03:09;99639.66;;;18.50;62.12
26823;BME280;14852;51.910;8.878;2023-05-23T02:05:36;99637.84;;;18.51;62.14
26823;BME280;14852;51.910;8.878;2023-05-23T02:08:02;99648.25;;;18.52;61.97
26823;BME280;14852;51.910;8.878;2023-05-23T02:10:28;99643.94;;;18.51;62.32
26823;BME280;14852;51.910;8.878;2023-05-23T02:12:53;99647.66;;;18.49;61.94
26823;BME280;14852;51.910;8.878;2023-05-23T02:15:19;99648.63;;;18.48;62.45
26823;BME280;14852;51.910;8.878;2023-05-23T02:17:45;99650.59;;;18.45;62.37
26823;BME280;14852;51.910;8.878;2023-05-23T02:20:12;99650.84;;;18.42;62.38
26823;BME280;14852;51.910;8.878;2023-05-23T02:22:39;99649.44;;;18.38;62.52
26823;BME280;14852;51.910;8.878;2023-05-23T02:25:05;99654.94;;;18.35;62.06
26823;BME280;14852;51.910;8.878;2023-05-23T02:27:31;99654.41;;;18.32;62.47
26823;BME280;14852;51.910;8.878;2023-05-23T02:29:58;99661.59;;;18.30;62.47
26823;BME280;14852;51.910;8.878;2023-05-23T02:32:23;99659.09;;;18.28;62.71
26823;BME280;14852;51.910;8.878;2023-05-23T02:34:49;99661.47;;;18.31;61.91
26823;BME280;14852;51.910;8.878;2023-05-23T02:37:15;99663.97;;;18.33;62.32
26823;BME280;14852;51.910;8.878;2023-05-23T02:39:42;99659.78;;;18.30;62.71
26823;BME280;14852;51.910;8.878;2023-05-23T02:42:08;99661.59;;;18.30;62.75
26823;BME280;14852;51.910;8.878;2023-05-23T02:44:34;99661.97;;;18.25;62.34
26823;BME280;14852;51.910;8.878;2023-05-23T02:47:00;99671.38;;;18.18;62.59
26823;BME280;14852;51.910;8.878;2023-05-23T02:49:26;99664.97;;;18.11;62.46
26823;BME280;14852;51.910;8.878;2023-05-23T02:51:52;99669.06;;;18.04;62.56
26823;BME280;14852;51.910;8.878;2023-05-23T02:54:18;99670.56;;;17.97;62.55
26823;BME280;14852;51.910;8.878;2023-05-23T02:56:44;99670.09;;;17.92;62.36
26823;BME280;14852;51.910;8.878;2023-05-23T02:59:11;99674.78;;;17.88;62.29
26823;BME280;14852;51.910;8.878;2023-05-23T03:01:37;99676.97;;;17.83;61.79
26823;BME280;14852;51.910;8.878;2023-05-23T03:04:03;99679.84;;;17.80;62.39
26823;BME280;14852;51.910;8.878;2023-05-23T03:06:29;99679.00;;;17.80;61.89
26823;BME280;14852;51.910;8.878;2023-05-23T03:08:56;99677.47;;;17.77;62.06
26823;BME280;14852;51.910;8.878;2023-05-23T03:11:22;99684.66;;;17.75;62.37
26823;BME280;14852;51.910;8.878;2023-05-23T03:13:48;99683.13;;;17.72;62.38
26823;BME280;14852;51.910;8.878;2023-05-23T03:16:14;99674.66;;;17.69;62.44
26823;BME280;14852;51.910;8.878;2023-05-23T03:18:40;99682.53;;;17.69;62.30
26823;BME280;14852;51.910;8.878;2023-05-23T03:21:08;99683.47;;;17.68;61.91
26823;BME280;14852;51.910;8.878;2023-05-23T03:23:34;99681.13;;;17.65;62.23
26823;BME280;14852;51.910;8.878;2023-05-23T03:26:02;99678.63;;;17.63;62.40
26823;BME280;14852;51.910;8.878;2023-05-23T03:28:30;99682.31;;;17.61;62.28
26823;BME280;14852;51.910;8.878;2023-05-23T03:30:57;99680.75;;;17.58;62.62
26823;BME280;14852;51.910;8.878;2023-05-23T03:33:22;99665.13;;;17.57;62.40
26823;BME280;14852;51.910;8.878;2023-05-23T03:35:48;99665.34;;;17.54;62.55
26823;BME280;14852;51.910;8.878;2023-05-23T03:38:14;99666.47;;;17.51;62.60
26823;BME280;14852;51.910;8.878;2023-05-23T03:40:40;99669.94;;;17.52;62.47
26823;BME280;14852;51.910;8.878;2023-05-23T03:43:07;99674.22;;;17.53;62.22
26823;BME280;14852;51.910;8.878;2023-05-23T03:45:35;99672.44;;;17.53;62.26
26823;BME280;14852;51.910;8.878;2023-05-23T03:48:05;99673.00;;;17.57;62.55
26823;BME280;14852;51.910;8.878;2023-05-23T03:50:31;99670.38;;;17.57;62.53
26823;BME280;14852;51.910;8.878;2023-05-23T03:52:56;99671.09;;;17.59;62.20
26823;BME280;14852;51.910;8.878;2023-05-23T03:55:24;99678.84;;;17.60;62.24
26823;BME280;14852;51.910;8.878;2023-05-23T03:57:50;99679.56;;;17.62;61.80
26823;BME280;14852;51.910;8.878;2023-05-23T04:00:19;99677.88;;;17.61;62.13
26823;BME280;14852;51.910;8.878;2023-05-23T04:02:49;99682.78;;;17.66;62.00
26823;BME280;14852;51.910;8.878;2023-05-23T04:05:17;99685.41;;;17.66;61.63
26823;BME280;14852;51.910;8.878;2023-05-23T04:07:44;99685.41;;;17.66;62.56
26823;BME280;14852;51.910;8.878;2023-05-23T04:10:10;99692.59;;;17.64;62.18
26823;BME280;14852;51.910;8.878;2023-05-23T04:12:37;99689.13;;;17.63;61.96
26823;BME280;14852;51.910;8.878;2023-05-23T04:15:08;99692.81;;;17.61;62.04
26823;BME280;14852;51.910;8.878;2023-05-23T04:17:37;99689.47;;;17.59;62.45
26823;BME280;14852;51.910;8.878;2023-05-23T04:20:07;99693.19;;;17.56;62.67
26823;BME280;14852;51.910;8.878;2023-05-23T04:22:34;99693.56;;;17.52;62.56
26823;BME280;14852;51.910;8.878;2023-05-23T04:25:00;99700.75;;;17.50;62.71
26823;BME280;14852;51.910;8.878;2023-05-23T04:27:29;99699.19;;;17.47;62.91
26823;BME280;14852;51.910;8.878;2023-05-23T04:29:55;99691.44;;;17.46;62.84
26823;BME280;14852;51.910;8.878;2023-05-23T04:32:23;99689.63;;;17.46;63.11
26823;BME280;14852;51.910;8.878;2023-05-23T04:34:49;99697.53;;;17.46;62.93
26823;BME280;14852;51.910;8.878;2023-05-23T04:37:15;99695.97;;;17.44;63.07
26823;BME280;14852;51.910;8.878;2023-05-23T04:39:42;99694.31;;;17.43;63.10
26823;BME280;14852;51.910;8.878;2023-05-23T04:42:28;99698.03;;;17.40;63.05
26823;BME280;14852;51.910;8.878;2023-05-23T04:45:05;99700.66;;;17.40;63.11
26823;BME280;14852;51.910;8.878;2023-05-23T04:47:57;99700.78;;;17.38;63.24
26823;BME280;14852;51.910;8.878;2023-05-23T04:50:33;99692.19;;;17.36;63.53
26823;BME280;14852;51.910;8.878;2023-05-23T04:53:01;99695.19;;;17.32;63.53
26823;BME280;14852;51.910;8.878;2023-05-23T04:55:27;99692.31;;;17.35;63.80
26823;BME280;14852;51.910;8.878;2023-05-23T04:57:53;99689.44;;;17.38;63.88
26823;BME280;14852;51.910;8.878;2023-05-23T05:00:19;99699.00;;;17.39;63.51
26823;BME280;14852;51.910;8.878;2023-05-23T05:02:45;99702.34;;;17.41;63.43
26823;BME280;14852;51.910;8.878;2023-05-23T05:05:11;99706.34;;;17.45;63.57
26823;BME280;14852;51.910;8.878;2023-05-23T05:07:37;99705.66;;;17.43;63.33
26823;BME280;14852;51.910;8.878;2023-05-23T05:10:05;99708.97;;;17.45;63.78
26823;BME280;14852;51.910;8.878;2023-05-23T05:12:32;99698.25;;;17.48;63.36
26823;BME280;14852;51.910;8.878;2023-05-23T05:14:59;99718.19;;;17.51;63.19
26823;BME280;14852;51.910;8.878;2023-05-23T05:17:26;99716.09;;;17.54;63.64
26823;BME280;14852;51.910;8.878;2023-05-23T05:20:03;99709.78;;;17.57;63.72
26823;BME280;14852;51.910;8.878;2023-05-23T05:22:38;99710.03;;;17.65;63.19
26823;BME280;14852;51.910;8.878;2023-05-23T05:25:10;99715.50;;;17.62;63.37
26823;BME280;14852;51.910;8.878;2023-05-23T05:27:36;99720.66;;;17.63;63.20
26823;BME280;14852;51.910;8.878;2023-05-23T05:30:08;99719.84;;;17.63;63.44
26823;BME280;14852;51.910;8.878;2023-05-23T05:32:45;99717.22;;;17.63;63.33
26823;BME280;14852;51.910;8.878;2023-05-23T05:35:13;99724.47;;;17.59;63.76
26823;BME280;14852;51.910;8.878;2023-05-23T05:37:40;99721.00;;;17.59;63.36
26823;BME280;14852;51.910;8.878;2023-05-23T05:40:07;99719.09;;;17.61;63.77
26823;BME280;14852;51.910;8.878;2023-05-23T05:42:36;99721.59;;;17.62;63.52
26823;BME280;14852;51.910;8.878;2023-05-23T05:45:02;99720.75;;;17.62;63.94
26823;BME280;14852;51.910;8.878;2023-05-23T05:47:29;99719.91;;;17.61;63.56
26823;BME280;14852;51.910;8.878;2023-05-23T05:49:55;99725.19;;;17.61;63.99
26823;BME280;14852;51.910;8.878;2023-05-23T05:52:21;99714.56;;;17.63;64.00
26823;BME280;14852;51.910;8.878;2023-05-23T05:54:47;99715.13;;;17.66;63.72
26823;BME280;14852;51.910;8.878;2023-05-23T05:57:13;99716.56;;;17.70;63.56
26823;BME280;14852;51.910;8.878;2023-05-23T05:59:39;99705.81;;;17.73;63.32
26823;BME280;14852;51.910;8.878;2023-05-23T06:02:05;99708.19;;;17.77;63.58
26823;BME280;14852;51.910;8.878;2023-05-23T06:04:31;99710.66;;;17.78;63.75
26823;BME280;14852;51.910;8.878;2023-05-23T06:06:57;99715.09;;;17.78;63.51
26823;BME280;14852;51.910;8.878;2023-05-23T06:09:23;99720.94;;;17.81;63.44
26823;BME280;14852;51.910;8.878;2023-05-23T06:11:49;99726.06;;;17.83;63.96
26823;BME280;14852;51.910;8.878;2023-05-23T06:14:14;99732.16;;;17.83;63.20
26823;BME280;14852;51.910;8.878;2023-05-23T06:16:43;99723.56;;;17.81;63.60
26823;BME280;14852;51.910;8.878;2023-05-23T06:19:09;99722.59;;;17.82;63.91
26823;BME280;14852;51.910;8.878;2023-05-23T06:21:36;99730.50;;;17.82;63.76
26823;BME280;14852;51.910;8.878;2023-05-23T06:24:04;99734.78;;;17.83;64.04
26823;BME280;14852;51.910;8.878;2023-05-23T06:26:30;99729.53;;;17.83;63.58
26823;BME280;14852;51.910;8.878;2023-05-23T06:28:56;99740.16;;;17.82;63.90
26823;BME280;14852;51.910;8.878;2023-05-23T06:31:22;99741.13;;;17.81;63.93
26823;BME280;14852;51.910;8.878;2023-05-23T06:33:47;99741.84;;;17.83;63.62
26823;BME280;14852;51.910;8.878;2023-05-23T06:36:13;99739.91;;;17.85;63.90
26823;BME280;14852;51.910;8.878;2023-05-23T06:38:39;99746.72;;;17.87;63.94
26823;BME280;14852;51.910;8.878;2023-05-23T06:41:05;99748.41;;;17.88;63.72
26823;BME280;14852;51.910;8.878;2023-05-23T06:43:33;99746.44;;;17.90;63.58
26823;BME280;14852;51.910;8.878;2023-05-23T06:46:13;99753.66;;;17.88;63.45
26823;BME280;14852;51.910;8.878;2023-05-23T06:48:39;99751.97;;;17.87;63.58
26823;BME280;14852;51.910;8.878;2023-05-23T06:51:05;99755.81;;;17.83;63.73
26823;BME280;14852;51.910;8.878;2023-05-23T06:53:30;99762.88;;;17.83;63.75
26823;BME280;14852;51.910;8.878;2023-05-23T06:55:56;99770.50;;;17.86;63.80
26823;BME280;14852;51.910;8.878;2023-05-23T06:58:22;99770.03;;;17.81;64.20
26823;BME280;14852;51.910;8.878;2023-05-23T07:00:50;99770.56;;;17.75;64.17
26823;BME280;14852;51.910;8.878;2023-05-23T07:03:23;99775.44;;;17.68;64.25
26823;BME280;14852;51.910;8.878;2023-05-23T07:05:49;99782.91;;;17.63;63.95
26823;BME280;14852;51.910;8.878;2023-05-23T07:08:17;99777.97;;;17.58;64.38
26823;BME280;14852;51.910;8.878;2023-05-23T07:10:56;99787.88;;;17.55;64.38
26823;BME280;14852;51.910;8.878;2023-05-23T07:13:29;99783.09;;;17.60;64.04
26823;BME280;14852;51.910;8.878;2023-05-23T07:15:56;99780.84;;;17.55;63.87
26823;BME280;14852;51.910;8.878;2023-05-23T07:18:23;99790.50;;;17.55;64.18
26823;BME280;14852;51.910;8.878;2023-05-23T07:20:49;99801.53;;;17.49;64.12
26823;BME280;14852;51.910;8.878;2023-05-23T07:23:18;99796.38;;;17.47;63.94
26823;BME280;14852;51.910;8.878;2023-05-23T07:25:45;99794.94;;;17.43;64.34
26823;BME280;14852;51.910;8.878;2023-05-23T07:28:20;99803.22;;;17.38;64.48
26823;BME280;14852;51.910;8.878;2023-05-23T07:30:46;99813.59;;;17.40;64.40
26823;BME280;14852;51.910;8.878;2023-05-23T07:33:12;99817.06;;;17.41;64.54
26823;BME280;14852;51.910;8.878;2023-05-23T07:35:40;99815.28;;;17.41;63.91
26823;BME280;14852;51.910;8.878;2023-05-23T07:38:06;99814.56;;;17.39;64.32
26823;BME280;14852;51.910;8.878;2023-05-23T07:40:32;99814.69;;;17.37;64.11
26823;BME280;14852;51.910;8.878;2023-05-23T07:42:58;99821.25;;;17.32;64.32
26823;BME280;14852;51.910;8.878;2023-05-23T07:45:25;99824.97;;;17.29;64.29
26823;BME280;14852;51.910;8.878;2023-05-23T07:47:50;99830.22;;;17.29;64.19
26823;BME280;14852;51.910;8.878;2023-05-23T07:50:17;99837.25;;;17.29;64.41
26823;BME280;14852;51.910;8.878;2023-05-23T07:52:43;99838.44;;;17.25;64.50
26823;BME280;14852;51.910;8.878;2023-05-23T07:55:13;99840.47;;;17.21;64.23
26823;BME280;14852;51.910;8.878;2023-05-23T07:57:39;99843.34;;;17.18;64.52
26823;BME280;14852;51.910;8.878;2023-05-23T08:00:05;99853.25;;;17.15;64.26
26823;BME280;14852;51.910;8.878;2023-05-23T08:02:40;99842.16;;;17.11;64.18
26823;BME280;14852;51.910;8.878;2023-05-23T08:05:09;99847.88;;;17.05;64.57
26823;BME280;14852;51.910;8.878;2023-05-23T08:07:36;99855.50;;;16.97;64.56
26823;BME280;14852;51.910;8.878;2023-05-23T08:10:05;99863.84;;;16.91;64.56
26823;BME280;14852;51.910;8.878;2023-05-23T08:12:30;99871.84;;;16.89;64.43
26823;BME280;14852;51.910;8.878;2023-05-23T08:15:05;99869.72;;;16.83;64.36
26823;BME280;14852;51.910;8.878;2023-05-23T08:17:39;99892.72;;;16.80;64.15
26823;BME280;14852;51.910;8.878;2023-05-23T08:20:05;99887.91;;;16.74;64.57
26823;BME280;14852;51.910;8.878;2023-05-23T08:22:32;99896.03;;;16.71;64.49
26823;BME280;14852;51.910;8.878;2023-05-23T08:24:58;99897.22;;;16.67;64.35
26823;BME280;14852;51.910;8.878;2023-05-23T08:27:26;99904.69;;;16.60;64.51
26823;BME280;14852;51.910;8.878;2023-05-23T08:29:56;99912.03;;;16.55;64.32
26823;BME280;14852;51.910;8.878;2023-05-23T08:32:22;99912.16;;;16.53;64.24
26823;BME280;14852;51.910;8.878;2023-05-23T08:34:48;99911.31;;;16.53;64.63
26823;BME280;14852;51.910;8.878;2023-05-23T08:37:14;99906.91;;;16.53;64.27
26823;BME280;14852;51.910;8.878;2023-05-23T08:39:40;99913.84;;;16.54;64.49
26823;BME280;14852;51.910;8.878;2023-05-23T08:42:24;99927.78;;;16.55;64.14
26823;BME280;14852;51.910;8.878;2023-05-23T08:44:51;99915.84;;;16.51;63.98
26823;BME280;14852;51.910;8.878;2023-05-23T08:47:18;99928.84;;;16.52;64.22
26823;BME280;14852;51.910;8.878;2023-05-23T08:49:51;99929.69;;;16.53;64.22
26823;BME280;14852;51.910;8.878;2023-05-23T08:52:20;99932.41;;;16.51;63.91
26823;BME280;14852;51.910;8.878;2023-05-23T08:54:52;99932.66;;;16.48;64.22
26823;BME280;14852;51.910;8.878;2023-05-23T08:57:17;99936.44;;;16.44;64.07
26823;BME280;14852;51.910;8.878;2023-05-23T08:59:50;99942.84;;;16.40;64.18
26823;BME280;14852;51.910;8.878;2023-05-23T09:02:17;99940.47;;;16.37;63.67
26823;BME280;14852;51.910;8.878;2023-05-23T09:04:43;99941.44;;;16.36;64.24
26823;BME280;14852;51.910;8.878;2023-05-23T09:07:15;99946.78;;;16.35;64.30
26823;BME280;14852;51.910;8.878;2023-05-23T09:09:44;99952.66;;;16.38;64.35
26823;BME280;14852;51.910;8.878;2023-05-23T09:12:12;99953.47;;;16.39;63.92
26823;BME280;14852;51.910;8.878;2023-05-23T09:14:40;99958.00;;;16.37;64.26
26823;BME280;14852;51.910;8.878;2023-05-23T09:17:08;99962.41;;;16.36;64.10
26823;BME280;14852;51.910;8.878;2023-05-23T09:19:40;99966.72;;;16.37;64.19
26823;BME280;14852;51.910;8.878;2023-05-23T09:22:23;99966.47;;;16.40;64.45
26823;BME280;14852;51.910;8.878;2023-05-23T09:24:59;99972.34;;;16.44;64.03
26823;BME280;14852;51.910;8.878;2023-05-23T09:27:26;99965.31;;;16.44;64.27
26823;BME280;14852;51.910;8.878;2023-05-23T09:29:52;99979.47;;;16.42;64.36
26823;BME280;14852;51.910;8.878;2023-05-23T09:32:20;99981.16;;;16.43;64.09
26823;BME280;14852;51.910;8.878;2023-05-23T09:34:56;99987.00;;;16.46;64.07
26823;BME280;14852;51.910;8.878;2023-05-23T09:37:33;99987.84;;;16.47;64.43
26823;BME280;14852;51.910;8.878;2023-05-23T09:40:00;99991.06;;;16.50;64.18
26823;BME280;14852;51.910;8.878;2023-05-23T09:42:42;99989.78;;;16.56;64.28
26823;BME280;14852;51.910;8.878;2023-05-23T09:45:09;99995.03;;;16.56;64.50
26823;BME280;14852;51.910;8.878;2023-05-23T09:47:35;99983.72;;;16.55;64.06
26823;BME280;14852;51.910;8.878;2023-05-23T09:50:01;99986.66;;;16.51;63.70
26823;BME280;14852;51.910;8.878;2023-05-23T09:52:38;99988.78;;;16.46;63.99
26823;BME280;14852;51.910;8.878;2023-05-23T09:55:05;99990.91;;;16.41;64.23
26823;BME280;14852;51.910;8.878;2023-05-23T09:57:34;100000.34;;;16.43;63.93
26823;BME280;14852;51.910;8.878;2023-05-23T10:00:03;100001.91;;;16.46;64.28
26823;BME280;14852;51.910;8.878;2023-05-23T10:03:10;100011.84;;;16.53;63.84
26823;BME280;14852;51.910;8.878;2023-05-23T10:05:50;100011.94;;;16.52;63.91
26823;BME280;14852;51.910;8.878;2023-05-23T10:08:33;100007.78;;;16.49;63.87
26823;BME280;14852;51.910;8.878;2023-05-23T10:13:48;100014.19;;;16.45;63.63
26823;BME280;14852;51.910;8.878;2023-05-23T10:19:30;100023.66;;;16.35;63.74
26823;BME280;14852;51.910;8.878;2023-05-23T10:22:01;100017.91;;;16.30;63.72
26823;BME280;14852;51.910;8.878;2023-05-23T10:24:28;100021.09;;;16.22;63.76
26823;BME280;14852;51.910;8.878;2023-05-23T10:26:54;100017.00;;;16.18;64.02
26823;BME280;14852;51.910;8.878;2023-05-23T10:29:24;100027.00;;;16.13;64.22
26823;BME280;14852;51.910;8.878;2023-05-23T10:31:51;100026.25;;;16.11;64.19
26823;BME280;14852;51.910;8.878;2023-05-23T10:37:21;100039.38;;;16.11;63.94
26823;BME280;14852;51.910;8.878;2023-05-23T10:45:20;100047.53;;;16.07;63.82
26823;BME280;14852;51.910;8.878;2023-05-23T10:47:49;100048.94;;;16.00;63.94
26823;BME280;14852;51.910;8.878;2023-05-23T10:50:33;100049.13;;;15.97;64.15
26823;BME280;14852;51.910;8.878;2023-05-23T10:53:03;100058.78;;;15.96;63.79
26823;BME280;14852;51.910;8.878;2023-05-23T10:55:34;100055.41;;;15.94;63.70
26823;BME280;14852;51.910;8.878;2023-05-23T10:58:13;100055.41;;;15.94;63.79
26823;BME280;14852;51.910;8.878;2023-05-23T11:00:56;100057.63;;;16.00;63.51
26823;BME280;14852;51.910;8.878;2023-05-23T11:06:43;100074.59;;;16.07;63.40
26823;BME280;14852;51.910;8.878;2023-05-23T11:09:16;100072.19;;;16.04;63.35
26823;BME280;14852;51.910;8.878;2023-05-23T11:12:02;100078.50;;;16.02;63.61
26823;BME280;14852;51.910;8.878;2023-05-23T11:19:59;100086.16;;;15.92;63.19
26823;BME280;14852;51.910;8.878;2023-05-23T11:22:27;100110.78;;;15.89;63.03
26823;BME280;14852;51.910;8.878;2023-05-23T11:24:57;100096.66;;;15.92;62.98
26823;BME280;14852;51.910;8.878;2023-05-23T11:27:45;100095.91;;;16.03;62.98
26823;BME280;14852;51.910;8.878;2023-05-23T11:30:14;100101.84;;;16.05;62.72
26823;BME280;14852;51.910;8.878;2023-05-23T11:32:48;100106.88;;;16.08;62.74
26823;BME280;14852;51.910;8.878;2023-05-23T11:35:15;100111.28;;;16.07;62.64
26823;BME280;14852;51.910;8.878;2023-05-23T11:37:42;100116.31;;;16.10;62.65
26823;BME280;14852;51.910;8.878;2023-05-23T11:40:45;100113.59;;;16.12;62.59
26823;BME280;14852;51.910;8.878;2023-05-23T11:43:15;100118.22;;;16.08;62.21
26823;BME280;14852;51.910;8.878;2023-05-23T11:45:41;100117.66;;;16.16;62.69
26823;BME280;14852;51.910;8.878;2023-05-23T11:48:13;100103.38;;;16.33;61.90
26823;BME280;14852;51.910;8.878;2023-05-23T11:50:49;100112.34;;;16.67;61.72
26823;BME280;14852;51.910;8.878;2023-05-23T11:53:17;100113.34;;;16.77;60.78
26823;BME280;14852;51.910;8.878;2023-05-23T11:56:00;100104.22;;;16.82;61.05
26823;BME280;14852;51.910;8.878;2023-05-23T11:58:32;100106.94;;;16.81;60.96
26823;BME280;14852;51.910;8.878;2023-05-23T12:01:08;100114.59;;;16.84;61.04
26823;BME280;14852;51.910;8.878;2023-05-23T12:03:45;100105.91;;;16.83;61.00
26823;BME280;14852;51.910;8.878;2023-05-23T12:06:23;100110.56;;;16.91;60.65
26823;BME280;14852;51.910;8.878;2023-05-23T12:08:51;100109.91;;;17.00;60.68
26823;BME280;14852;51.910;8.878;2023-05-23T12:11:20;100121.59;;;16.96;60.15
26823;BME280;14852;51.910;8.878;2023-05-23T12:13:48;100126.00;;;16.95;60.50
26823;BME280;14852;51.910;8.878;2023-05-23T12:16:16;100127.22;;;17.02;60.15
26823;BME280;14852;51.910;8.878;2023-05-23T12:18:42;100131.47;;;17.16;59.85
26823;BME280;14852;51.910;8.878;2023-05-23T12:21:08;100131.28;;;17.30;59.25
26823;BME280;14852;51.910;8.878;2023-05-23T12:23:34;100130.59;;;17.40;58.71
26823;BME280;14852;51.910;8.878;2023-05-23T12:26:04;100123.31;;;17.43;58.46
26823;BME280;14852;51.910;8.878;2023-05-23T12:28:49;100121.41;;;17.45;58.77
26823;BME280;14852;51.910;8.878;2023-05-23T12:31:20;100136.91;;;17.37;59.16
26823;BME280;14852;51.910;8.878;2023-05-23T12:33:47;100144.78;;;17.37;58.72
26823;BME280;14852;51.910;8.878;2023-05-23T12:36:15;100137.63;;;17.39;58.75
26823;BME280;14852;51.910;8.878;2023-05-23T12:38:46;100139.06;;;17.43;58.62
26823;BME280;14852;51.910;8.878;2023-05-23T12:41:17;100144.59;;;17.51;57.85
26823;BME280;14852;51.910;8.878;2023-05-23T12:43:55;100143.19;;;17.58;57.90
26823;BME280;14852;51.910;8.878;2023-05-23T12:46:26;100141.41;;;17.59;57.81
26823;BME280;14852;51.910;8.878;2023-05-23T12:48:53;100150.84;;;17.61;57.52
26823;BME280;14852;51.910;8.878;2023-05-23T12:51:19;100156.75;;;17.65;57.11
26823;BME280;14852;51.910;8.878;2023-05-23T12:53:45;100154.47;;;17.71;57.03
26823;BME280;14852;51.910;8.878;2023-05-23T12:56:11;100163.97;;;17.85;56.28
26823;BME280;14852;51.910;8.878;2023-05-23T12:58:37;100175.22;;;17.98;56.81
26823;BME280;14852;51.910;8.878;2023-05-23T13:01:03;100162.66;;;18.13;56.49
26823;BME280;14852;51.910;8.878;2023-05-23T13:03:29;100163.03;;;18.42;55.66
26823;BME280;14852;51.910;8.878;2023-05-23T13:05:56;100162.94;;;18.66;55.87
26823;BME280;14852;51.910;8.878;2023-05-23T13:08:23;100160.53;;;18.74;54.61
26823;BME280;14852;51.910;8.878;2023-05-23T13:10:49;100166.75;;;18.73;54.29
26823;BME280;14852;51.910;8.878;2023-05-23T13:13:15;100166.50;;;18.76;53.92
26823;BME280;14852;51.910;8.878;2023-05-23T13:15:40;100163.63;;;18.90;53.35
26823;BME280;14852;51.910;8.878;2023-05-23T13:18:06;100160.94;;;19.01;52.97
26823;BME280;14852;51.910;8.878;2023-05-23T13:20:32;100159.47;;;19.08;53.02
26823;BME280;14852;51.910;8.878;2023-05-23T13:22:59;100159.31;;;19.21;52.77
26823;BME280;14852;51.910;8.878;2023-05-23T13:25:28;100162.75;;;19.33;52.57
26823;BME280;14852;51.910;8.878;2023-05-23T13:27:54;100157.19;;;19.47;52.01
26823;BME280;14852;51.910;8.878;2023-05-23T13:30:22;100158.78;;;19.70;51.75
26823;BME280;14852;51.910;8.878;2023-05-23T13:32:49;100158.03;;;19.89;50.91
26823;BME280;14852;51.910;8.878;2023-05-23T13:35:15;100154.44;;;19.90;51.00